Time;durP1;ratioP1;P1;durP2;ratioP2;P2;SDS_P1;SDS_P2;PMS_P1;PMS_P2;Temp;Humidity;BMP_temperature;BMP_pressure;BME280_temperature;BME280_humidity;BME280_pressure;Samples;Min_cycle;Max_cycle;Signal;HPM_P1;HPM_P2
2022/07/01 00:02:26;;;;;;;4.80;2.78;;;;;;;;;;6177996;23;20487;-51
2022/07/01 00:04:53;;;;;;;3.60;2.95;;;;;;;;;;6177651;23;20021;-48
2022/07/01 00:07:28;;;;;;;8.82;3.20;;;;;;;;;;6176117;23;20463;-46
2022/07/01 00:09:55;;;;;;;9.55;3.40;;;;;;;;;;6177340;23;20035;-65
2022/07/01 00:12:22;;;;;;;5.65;3.25;;;;;;;;;;6177850;23;20430;-51
2022/07/01 00:14:57;;;;;;;5.68;3.00;;;;;;;;;;6177647;23;20025;-49
2022/07/01 00:17:24;;;;;;;6.68;3.13;;;;;;;;;;6177367;23;20021;-51
2022/07/01 00:19:51;;;;;;;6.82;3.33;;;;;;;;;;6178167;23;20133;-50
2022/07/01 00:22:27;;;;;;;5.00;3.33;;;;;;;;;;6178092;23;20052;-48
2022/07/01 00:24:55;;;;;;;6.97;2.95;;;;;;;;;;6177194;23;20025;-49
2022/07/01 00:27:22;;;;;;;6.75;3.10;;;;;;;;;;6176514;23;20032;-48
2022/07/01 00:29:56;;;;;;;4.45;3.30;;;;;;;;;;6177573;23;20025;-58
2022/07/01 00:32:23;;;;;;;5.30;3.55;;;;;;;;;;6176796;23;20363;-58
2022/07/01 00:34:50;;;;;;;8.57;3.33;;;;;;;;;;6177679;23;20028;-57
2022/07/01 00:37:24;;;;;;;4.63;2.90;;;;;;;;;;6177818;23;20033;-58
2022/07/01 00:39:51;;;;;;;5.22;3.70;;;;;;;;;;6177396;23;20021;-56
2022/07/01 00:42:18;;;;;;;5.38;3.50;;;;;;;;;;6176810;23;20025;-57
2022/07/01 00:44:53;;;;;;;5.22;3.30;;;;;;;;;;6177603;23;20025;-57
2022/07/01 00:47:26;;;;;;;4.57;3.00;;;;;;;;;;6177439;22;20087;-50
2022/07/01 00:50:08;;;;;;;4.00;3.35;;;;;;;;;;6147271;23;20029;-47
2022/07/01 00:52:35;;;;;;;3.70;3.30;;;;;;;;;;6147793;23;20553;-50
2022/07/01 00:55:11;;;;;;;7.57;3.33;;;;;;;;;;6147455;23;20096;-50
2022/07/01 00:57:38;;;;;;;3.85;2.95;;;;;;;;;;6147178;23;20036;-52
2022/07/01 01:00:06;;;;;;;7.30;3.58;;;;;;;;;;6147441;23;20021;-52
2022/07/01 01:02:40;;;;;;;5.05;3.55;;;;;;;;;;6148267;23;20021;-48
2022/07/01 01:05:08;;;;;;;7.10;3.20;;;;;;;;;;6147522;23;20084;-47
2022/07/01 01:07:35;;;;;;;4.05;2.92;;;;;;;;;;6147283;23;20026;-59
2022/07/01 01:10:10;;;;;;;6.30;3.28;;;;;;;;;;6147446;23;20079;-61
2022/07/01 01:12:37;;;;;;;5.53;3.25;;;;;;;;;;6147876;23;20077;-62
2022/07/01 01:15:04;;;;;;;6.57;3.25;;;;;;;;;;6147524;23;20088;-62
2022/07/01 01:17:39;;;;;;;6.38;3.17;;;;;;;;;;6147634;23;20047;-61
2022/07/01 01:20:06;;;;;;;6.80;3.25;;;;;;;;;;6146978;23;20037;-62
2022/07/01 01:22:33;;;;;;;4.35;3.40;;;;;;;;;;6148040;23;20065;-62
2022/07/01 01:25:07;;;;;;;8.07;3.22;;;;;;;;;;6146527;23;20033;-57
2022/07/01 01:27:34;;;;;;;5.35;3.78;;;;;;;;;;6147411;23;20032;-65
2022/07/01 01:30:01;;;;;;;6.22;3.42;;;;;;;;;;6146804;23;20029;-64
2022/07/01 01:32:35;;;;;;;5.95;3.70;;;;;;;;;;6147504;23;20053;-64
2022/07/01 01:35:03;;;;;;;4.97;3.60;;;;;;;;;;6146638;23;20025;-65
2022/07/01 01:37:30;;;;;;;5.30;3.40;;;;;;;;;;6146568;23;20018;-65
2022/07/01 01:40:04;;;;;;;4.65;3.08;;;;;;;;;;6147226;23;20033;-64
2022/07/01 01:42:31;;;;;;;5.00;3.38;;;;;;;;;;6147459;23;20057;-65
2022/07/01 01:44:58;;;;;;;4.90;3.55;;;;;;;;;;6147412;23;20083;-48
2022/07/01 01:47:39;;;;;;;7.97;3.58;;;;;;;;;;6150656;22;20033;-48
2022/07/01 01:50:14;;;;;;;6.28;3.70;;;;;;;;;;6176538;23;20055;-46
2022/07/01 01:52:49;;;;;;;6.10;4.20;;;;;;;;;;6176423;23;20467;-46
2022/07/01 01:55:16;;;;;;;7.50;3.63;;;;;;;;;;6176506;23;20083;-48
2022/07/01 01:57:43;;;;;;;8.80;3.65;;;;;;;;;;6177631;23;20025;-48
2022/07/01 02:00:17;;;;;;;5.45;3.42;;;;;;;;;;6175335;23;20107;-47
2022/07/01 02:02:44;;;;;;;6.22;3.28;;;;;;;;;;6177228;23;20025;-56
2022/07/01 02:05:13;;;;;;;10.43;3.90;;;;;;;;;;6176182;23;20067;-51
2022/07/01 02:07:47;;;;;;;5.32;3.38;;;;;;;;;;6177280;23;20025;-64
2022/07/01 02:10:14;;;;;;;5.18;3.72;;;;;;;;;;6175513;23;20075;-64
2022/07/01 02:12:41;;;;;;;8.13;3.78;;;;;;;;;;6177003;23;20404;-64
2022/07/01 02:15:16;;;;;;;5.80;3.53;;;;;;;;;;6175844;23;20028;-65
2022/07/01 02:17:51;;;;;;;6.50;3.75;;;;;;;;;;6176670;23;20079;-65
2022/07/01 02:20:25;;;;;;;4.45;3.17;;;;;;;;;;6175646;23;20052;-65
2022/07/01 02:22:52;;;;;;;6.32;4.47;;;;;;;;;;6176636;23;20351;-65
2022/07/01 02:25:20;;;;;;;5.78;3.65;;;;;;;;;;6175832;23;20033;-57
2022/07/01 02:27:54;;;;;;;5.47;3.70;;;;;;;;;;6175975;23;20080;-58
2022/07/01 02:30:22;;;;;;;7.53;3.67;;;;;;;;;;6176609;23;20097;-57
2022/07/01 02:32:49;;;;;;;5.88;3.80;;;;;;;;;;6175748;23;20063;-58
2022/07/01 02:35:23;;;;;;;6.80;3.95;;;;;;;;;;6176216;23;20028;-58
2022/07/01 02:37:50;;;;;;;;;;;;;;;;;;6177611;23;20056;-58
2022/07/01 02:40:17;;;;;;;4.40;3.60;;;;;;;;;;6175568;23;19916;-58
2022/07/01 02:42:52;;;;;;;6.70;3.08;;;;;;;;;;6177172;23;20025;-48
2022/07/01 02:45:19;;;;;;;6.43;3.40;;;;;;;;;;6176148;23;20494;-50
2022/07/01 02:47:46;;;;;;;7.65;3.83;;;;;;;;;;6178540;22;20021;-47
2022/07/01 02:50:27;;;;;;;8.13;3.70;;;;;;;;;;6176234;23;20033;-49
2022/07/01 02:52:57;;;;;;;5.32;3.72;;;;;;;;;;6177292;23;20021;-45
2022/07/01 02:55:31;;;;;;;8.63;3.95;;;;;;;;;;6176227;23;20075;-51
2022/07/01 02:57:58;;;;;;;4.80;3.50;;;;;;;;;;6176549;23;20067;-49
2022/07/01 03:00:25;;;;;;;5.15;3.58;;;;;;;;;;6176355;23;20560;-65
2022/07/01 03:03:00;;;;;;;4.80;4.07;;;;;;;;;;6176247;23;20025;-52
2022/07/01 03:05:27;;;;;;;5.75;3.95;;;;;;;;;;6176060;23;20084;-58
2022/07/01 03:07:54;;;;;;;4.65;3.90;;;;;;;;;;6175210;23;20134;-57
2022/07/01 03:10:28;;;;;;;5.28;3.97;;;;;;;;;;6176022;23;20025;-58
2022/07/01 03:12:55;;;;;;;7.40;3.97;;;;;;;;;;6176481;23;20072;-58
2022/07/01 03:15:22;;;;;;;5.38;3.75;;;;;;;;;;6175418;23;20537;-58
2022/07/01 03:17:57;;;;;;;5.40;3.60;;;;;;;;;;6153543;23;20079;-58
2022/07/01 03:20:24;;;;;;;6.07;3.88;;;;;;;;;;6177628;23;20079;-48
2022/07/01 03:22:51;;;;;;;6.50;3.47;;;;;;;;;;6178322;23;20032;-57
2022/07/01 03:25:26;;;;;;;7.82;4.20;;;;;;;;;;6177610;23;20351;-56
2022/07/01 03:27:53;;;;;;;7.00;3.80;;;;;;;;;;6178104;23;20463;-58
2022/07/01 03:30:20;;;;;;;4.97;3.60;;;;;;;;;;6178158;23;20470;-58
2022/07/01 03:32:55;;;;;;;6.10;3.72;;;;;;;;;;6177414;23;20068;-58
2022/07/01 03:35:40;;;;;;;4.25;3.55;;;;;;;;;;6151455;23;20521;-58
2022/07/01 03:38:14;;;;;;;5.55;3.83;;;;;;;;;;6177743;23;20033;-62
2022/07/01 03:40:41;;;;;;;;;;;;;;;;;;6178667;23;20239;-48
2022/07/01 03:43:09;;;;;;;4.25;3.80;;;;;;;;;;6177317;23;19916;-62
2022/07/01 03:45:47;;;;;;;5.43;3.55;;;;;;;;;;6178038;23;20426;-62
2022/07/01 03:48:27;;;;;;;4.95;3.00;;;;;;;;;;6180494;22;20025;-61
2022/07/01 03:51:08;;;;;;;4.82;3.60;;;;;;;;;;6177748;23;20025;-62
2022/07/01 03:56:29;;;;;;;4.07;3.45;;;;;;;;;;6177639;23;20096;-62
2022/07/01 03:58:56;;;;;;;5.72;3.83;;;;;;;;;;6177706;23;20406;-59
2022/07/01 04:01:23;;;;;;;4.32;3.30;;;;;;;;;;6176185;23;20102;-59
2022/07/01 04:03:57;;;;;;;5.18;3.70;;;;;;;;;;6177550;23;20414;-59
2022/07/01 04:06:24;;;;;;;;;;;;;;;;;;6179662;23;20100;-59
2022/07/01 04:08:51;;;;;;;5.97;3.67;;;;;;;;;;6179164;23;19920;-59
2022/07/01 04:11:26;;;;;;;9.07;4.30;;;;;;;;;;6178752;23;20095;-59
2022/07/01 04:13:53;;;;;;;7.95;5.03;;;;;;;;;;6177515;23;20076;-60
2022/07/01 04:16:21;;;;;;;5.95;4.07;;;;;;;;;;6177784;23;20029;-49
2022/07/01 04:19:01;;;;;;;6.35;3.42;;;;;;;;;;6177398;23;20546;-61
2022/07/01 04:24:25;;;;;;;5.03;3.45;;;;;;;;;;6176378;23;20032;-60
2022/07/01 04:26:52;;;;;;;4.53;3.30;;;;;;;;;;6176356;23;20031;-60
2022/07/01 04:29:19;;;;;;;;;;;;;;;;;;6176534;23;20028;-60
2022/07/01 04:31:53;;;;;;;6.03;3.35;;;;;;;;;;6176115;23;19916;-61
2022/07/01 04:34:20;;;;;;;5.22;3.50;;;;;;;;;;6176709;23;20025;-60
2022/07/01 04:36:47;;;;;;;3.92;3.53;;;;;;;;;;6175813;23;20072;-65
2022/07/01 04:39:22;;;;;;;5.13;4.50;;;;;;;;;;6174334;23;20411;-58
2022/07/01 04:42:01;;;;;;;7.47;4.15;;;;;;;;;;6175120;23;20422;-58
2022/07/01 04:44:36;;;;;;;6.35;3.47;;;;;;;;;;6174940;23;20060;-58
2022/07/01 04:47:10;;;;;;;6.03;3.83;;;;;;;;;;6173921;23;20231;-59
2022/07/01 04:49:56;;;;;;;4.50;4.10;;;;;;;;;;6177362;22;20576;-59
2022/07/01 04:52:30;;;;;;;7.07;4.88;;;;;;;;;;6173362;23;20029;-59
2022/07/01 04:55:06;;;;;;;6.20;5.60;;;;;;;;;;6175135;23;20506;-65
2022/07/01 04:57:33;;;;;;;7.78;5.25;;;;;;;;;;6174717;23;20524;-63
2022/07/01 05:00:00;;;;;;;;;;;;;;;;;;6176369;23;20036;-60
2022/07/01 05:02:34;;;;;;;5.55;4.78;;;;;;;;;;6175327;23;19986;-60
2022/07/01 05:05:01;;;;;;;5.65;5.07;;;;;;;;;;6173853;23;20036;-59
2022/07/01 05:07:28;;;;;;;;;;;;;;;;;;6177010;23;20029;-60
2022/07/01 05:10:03;;;;;;;5.50;4.93;;;;;;;;;;6176932;23;20317;-60
2022/07/01 05:12:30;;;;;;;6.93;4.80;;;;;;;;;;6177545;23;20025;-59
2022/07/01 05:14:57;;;;;;;6.90;4.15;;;;;;;;;;6176974;23;20087;-60
2022/07/01 05:23:10;;;;;;;8.30;4.78;;;;;;;;;;6177081;23;20025;-48
2022/07/01 05:25:37;;;;;;;5.97;4.57;;;;;;;;;;6176552;23;20028;-49
2022/07/01 05:28:05;;;;;;;7.70;4.70;;;;;;;;;;6176574;23;20672;-49
2022/07/01 05:30:39;;;;;;;8.25;4.55;;;;;;;;;;6172105;23;20021;-51
2022/07/01 05:33:06;;;;;;;5.88;4.43;;;;;;;;;;6174560;23;20029;-59
2022/07/01 05:35:33;;;;;;;5.70;4.80;;;;;;;;;;6174206;23;20094;-59
2022/07/01 05:38:08;;;;;;;7.72;4.40;;;;;;;;;;6173771;23;20025;-48
2022/07/01 05:40:35;;;;;;;7.03;4.70;;;;;;;;;;6175127;23;20474;-50
2022/07/01 05:43:02;;;;;;;7.47;4.88;;;;;;;;;;6173632;23;20052;-50
2022/07/01 05:45:36;;;;;;;6.18;4.50;;;;;;;;;;6175713;23;20028;-50
2022/07/01 05:48:15;;;;;;;6.40;4.45;;;;;;;;;;6178182;22;20021;-49
2022/07/01 05:50:50;;;;;;;7.03;4.05;;;;;;;;;;6176378;23;20379;-48
2022/07/01 05:53:18;;;;;;;5.20;3.88;;;;;;;;;;6177041;23;20394;-59
2022/07/01 05:55:45;;;;;;;4.72;3.85;;;;;;;;;;6176649;23;20079;-59
2022/07/01 05:58:19;;;;;;;4.95;3.97;;;;;;;;;;6176398;23;20029;-60
2022/07/01 06:00:46;;;;;;;5.05;3.90;;;;;;;;;;6176651;23;20021;-60
2022/07/01 06:03:14;;;;;;;5.70;3.90;;;;;;;;;;6176564;23;20051;-60
2022/07/01 06:05:48;;;;;;;8.00;3.83;;;;;;;;;;6176595;23;20020;-60
2022/07/01 06:08:15;;;;;;;4.32;3.85;;;;;;;;;;6175895;23;20054;-60
2022/07/01 06:10:42;;;;;;;3.92;3.30;;;;;;;;;;6175021;23;20029;-60
2022/07/01 06:13:17;;;;;;;6.68;3.33;;;;;;;;;;6175311;23;20055;-60
2022/07/01 06:15:44;;;;;;;6.25;3.78;;;;;;;;;;6175739;23;20024;-49
2022/07/01 06:18:11;;;;;;;5.10;3.75;;;;;;;;;;6176336;23;20025;-51
2022/07/01 06:20:46;;;;;;;8.25;3.28;;;;;;;;;;6176295;23;20024;-51
2022/07/01 06:23:13;;;;;;;6.22;3.25;;;;;;;;;;6176685;23;20383;-50
2022/07/01 06:25:40;;;;;;;6.57;3.47;;;;;;;;;;6175425;23;20466;-50
2022/07/01 06:28:14;;;;;;;3.90;3.25;;;;;;;;;;6174739;23;20052;-50
2022/07/01 06:30:43;;;;;;;;;;;;;;;;;;6177004;23;20025;-60
2022/07/01 06:33:11;;;;;;;5.25;3.58;;;;;;;;;;6176626;23;19940;-60
2022/07/01 06:35:45;;;;;;;8.63;4.13;;;;;;;;;;6176275;23;20024;-59
2022/07/01 06:38:12;;;;;;;4.18;3.05;;;;;;;;;;6175871;23;20025;-59
2022/07/01 06:40:39;;;;;;;5.05;3.20;;;;;;;;;;6175863;23;20025;-59
2022/07/01 06:43:14;;;;;;;5.82;3.25;;;;;;;;;;6175569;23;20344;-59
2022/07/01 06:45:41;;;;;;;6.10;3.42;;;;;;;;;;6175883;23;20664;-59
2022/07/01 06:48:29;;;;;;;5.88;3.05;;;;;;;;;;6176999;22;20021;-60
2022/07/01 06:51:04;;;;;;;12.63;3.00;;;;;;;;;;6176204;23;20033;-59
2022/07/01 06:53:31;;;;;;;;;;;;;;;;;;6178269;23;20071;-64
2022/07/01 06:55:58;;;;;;;5.30;3.15;;;;;;;;;;6176162;23;19935;-63
2022/07/01 06:58:33;;;;;;;6.70;2.40;;;;;;;;;;6178119;23;20044;-64
2022/07/01 07:01:00;;;;;;;4.05;2.80;;;;;;;;;;6178389;23;20051;-63
2022/07/01 07:03:27;;;;;;;7.18;2.80;;;;;;;;;;6177828;23;20033;-64
2022/07/01 07:06:03;;;;;;;4.43;2.95;;;;;;;;;;6177201;23;20080;-63
2022/07/01 07:08:30;;;;;;;4.97;2.88;;;;;;;;;;6175362;23;20025;-59
2022/07/01 07:10:58;;;;;;;7.25;2.90;;;;;;;;;;6178428;23;20029;-64
2022/07/01 07:13:32;;;;;;;5.72;2.92;;;;;;;;;;6177497;23;20060;-47
2022/07/01 07:15:59;;;;;;;5.22;2.72;;;;;;;;;;6178281;23;20076;-53
2022/07/01 07:18:26;;;;;;;4.40;2.67;;;;;;;;;;6177894;23;20024;-52
2022/07/01 07:21:00;;;;;;;5.55;3.38;;;;;;;;;;6177766;23;20617;-53
2022/07/01 07:23:27;;;;;;;;;;;;;;;;;;6177520;23;20494;-51
2022/07/01 07:25:54;;;;;;;4.53;2.72;;;;;;;;;;6177794;23;19943;-51
2022/07/01 07:28:29;;;;;;;4.25;2.60;;;;;;;;;;6178182;23;20028;-59
2022/07/01 07:30:56;;;;;;;3.22;2.40;;;;;;;;;;6152054;23;20059;-59
2022/07/01 07:33:24;;;;;;;3.08;2.72;;;;;;;;;;6177779;23;20017;-59
2022/07/01 07:35:58;;;;;;;5.60;3.10;;;;;;;;;;6179021;23;20021;-59
2022/07/01 07:38:25;;;;;;;3.97;2.60;;;;;;;;;;6176970;23;20478;-59
2022/07/01 07:40:52;;;;;;;6.55;2.58;;;;;;;;;;6177791;23;20096;-59
2022/07/01 07:43:27;;;;;;;4.90;2.75;;;;;;;;;;6177109;23;20028;-59
2022/07/01 07:45:54;;;;;;;6.60;2.40;;;;;;;;;;6178054;23;20805;-63
2022/07/01 07:48:21;;;;;;;4.57;2.70;;;;;;;;;;6178952;22;20021;-59
2022/07/01 07:51:02;;;;;;;8.45;2.78;;;;;;;;;;6178317;23;20091;-59
2022/07/01 07:53:30;;;;;;;4.07;2.40;;;;;;;;;;6176856;23;20105;-59
2022/07/01 07:56:04;;;;;;;3.45;2.40;;;;;;;;;;6177333;23;20032;-59
2022/07/01 07:58:31;;;;;;;3.67;2.47;;;;;;;;;;6178214;23;20071;-60
2022/07/01 08:00:58;;;;;;;4.82;2.58;;;;;;;;;;6177912;23;20056;-59
2022/07/01 08:03:34;;;;;;;5.57;2.50;;;;;;;;;;6176882;23;20096;-60
2022/07/01 08:06:01;;;;;;;4.95;3.00;;;;;;;;;;6178543;23;20032;-59
2022/07/01 08:08:28;;;;;;;;;;;;;;;;;;6176926;23;20083;-51
2022/07/01 08:11:02;;;;;;;5.22;2.60;;;;;;;;;;6176589;23;19943;-52
2022/07/01 08:13:29;;;;;;;;;;;;;;;;;;6178284;23;20057;-51
2022/07/01 08:15:57;;;;;;;7.53;2.72;;;;;;;;;;6176006;23;19924;-51
2022/07/01 08:18:31;;;;;;;3.95;2.47;;;;;;;;;;6176492;23;20025;-52
2022/07/01 08:20:58;;;;;;;4.35;2.35;;;;;;;;;;6176967;23;20162;-54
2022/07/01 08:23:25;;;;;;;;;;;;;;;;;;6178205;23;20388;-53
2022/07/01 08:25:59;;;;;;;5.25;2.38;;;;;;;;;;6177338;23;20345;-61
2022/07/01 08:28:26;;;;;;;;;;;;;;;;;;6176711;23;20116;-60
2022/07/01 08:30:53;;;;;;;4.30;2.22;;;;;;;;;;6177827;23;19916;-60
2022/07/01 08:33:28;;;;;;;4.50;2.20;;;;;;;;;;6177474;23;20108;-61
2022/07/01 08:35:55;;;;;;;;;;;;;;;;;;6178573;23;20098;-60
2022/07/01 08:38:22;;;;;;;4.63;2.25;;;;;;;;;;6176471;23;19959;-61
2022/07/01 08:40:57;;;;;;;4.03;2.20;;;;;;;;;;6176345;23;20025;-61
2022/07/01 08:43:24;;;;;;;;;;;;;;;;;;6176644;23;20021;-59
2022/07/01 08:45:51;;;;;;;6.68;2.35;;;;;;;;;;6177558;23;20020;-49
2022/07/01 08:48:32;;;;;;;5.18;2.05;;;;;;;;;;6177370;22;20028;-61
2022/07/01 08:51:06;;;;;;;6.13;2.10;;;;;;;;;;6177456;23;20057;-61
2022/07/01 08:53:41;;;;;;;6.18;2.08;;;;;;;;;;6176445;23;20028;-60
2022/07/01 08:59:01;;;;;;;4.20;2.45;;;;;;;;;;6177640;23;19986;-60
2022/07/01 09:01:28;;;;;;;;;;;;;;;;;;6177009;23;20029;-61
2022/07/01 09:03:57;;;;;;;5.97;2.17;;;;;;;;;;6177542;23;19917;-53
2022/07/01 09:06:31;;;;;;;4.07;2.08;;;;;;;;;;6177335;23;20021;-55
2022/07/01 09:08:58;;;;;;;;;;;;;;;;;;6177314;23;20020;-53
2022/07/01 09:11:26;;;;;;;9.50;2.35;;;;;;;;;;6174642;23;19978;-52
2022/07/01 09:14:07;;;;;;;4.00;2.25;;;;;;;;;;6177157;23;20032;-53
2022/07/01 09:16:45;;;;;;;4.40;2.30;;;;;;;;;;6176676;23;20398;-53
2022/07/01 09:19:20;;;;;;;6.65;1.83;;;;;;;;;;6176441;23;20605;-52
2022/07/01 09:21:49;;;;;;;4.38;2.30;;;;;;;;;;6176290;23;20056;-60
2022/07/01 09:24:31;;;;;;;3.03;2.15;;;;;;;;;;6177216;23;20021;-65
2022/07/01 09:27:11;;;;;;;4.15;1.98;;;;;;;;;;6176792;23;20025;-61
2022/07/01 09:29:39;;;;;;;3.88;1.70;;;;;;;;;;6177095;23;20052;-60
2022/07/01 09:32:16;;;;;;;5.43;2.00;;;;;;;;;;6177180;23;20032;-60
2022/07/01 09:34:44;;;;;;;7.32;1.85;;;;;;;;;;6177701;23;20602;-60
2022/07/01 09:37:11;;;;;;;;;;;;;;;;;;6176048;23;20025;-61
2022/07/01 09:39:46;;;;;;;5.15;2.25;;;;;;;;;;6177630;23;19916;-60
2022/07/01 09:42:13;;;;;;;3.60;1.95;;;;;;;;;;6176568;23;20021;-60
2022/07/01 09:45:02;;;;;;;5.03;2.28;;;;;;;;;;6176292;23;20021;-60
2022/07/01 09:47:39;;;;;;;4.47;1.98;;;;;;;;;;6175313;23;20076;-59
2022/07/01 09:50:13;;;;;;;7.07;2.00;;;;;;;;;;6180031;22;20389;-60
2022/07/01 09:52:55;;;;;;;5.28;1.85;;;;;;;;;;6176768;23;20529;-59
2022/07/01 09:55:22;;;;;;;3.67;2.03;;;;;;;;;;6176221;23;20032;-60
2022/07/01 09:57:56;;;;;;;2.83;1.77;;;;;;;;;;6176937;23;20021;-59
2022/07/01 10:00:23;;;;;;;2.95;1.63;;;;;;;;;;6176799;23;20029;-65
2022/07/01 10:02:50;;;;;;;;;;;;;;;;;;6176753;23;20059;-62
2022/07/01 10:05:24;;;;;;;2.63;1.80;;;;;;;;;;6174503;23;19916;-62
2022/07/01 10:07:52;;;;;;;5.95;2.47;;;;;;;;;;6176879;23;20465;-62
2022/07/01 10:10:28;;;;;;;8.57;2.42;;;;;;;;;;6176135;23;20541;-62
2022/07/01 10:13:03;;;;;;;3.78;1.88;;;;;;;;;;6175540;23;20088;-62
2022/07/01 10:15:31;;;;;;;4.25;2.10;;;;;;;;;;6175295;23;20420;-62
2022/07/01 10:17:58;;;;;;;4.70;1.77;;;;;;;;;;6176636;23;20021;-61
2022/07/01 10:20:32;;;;;;;5.80;2.25;;;;;;;;;;6176049;23;20030;-62
2022/07/01 10:23:04;;;;;;;3.83;1.73;;;;;;;;;;6177083;23;20084;-60
2022/07/01 10:25:35;;;;;;;3.22;2.03;;;;;;;;;;6176151;23;20024;-61
2022/07/01 10:28:16;;;;;;;3.97;2.05;;;;;;;;;;6176146;23;20502;-60
2022/07/01 10:30:50;;;;;;;6.97;2.15;;;;;;;;;;6177242;23;20121;-60
2022/07/01 10:33:43;;;;;;;3.10;2.13;;;;;;;;;;6174066;23;20025;-61
2022/07/01 10:36:12;;;;;;;4.45;2.00;;;;;;;;;;6176979;23;20029;-61
2022/07/01 10:39:07;;;;;;;4.15;2.20;;;;;;;;;;6176548;23;20490;-63
2022/07/01 10:41:35;;;;;;;6.90;2.10;;;;;;;;;;6176886;23;20442;-53
2022/07/01 10:44:10;;;;;;;4.63;1.95;;;;;;;;;;6174939;23;20048;-52
2022/07/01 10:46:44;;;;;;;3.30;2.00;;;;;;;;;;6176470;23;20021;-54
2022/07/01 10:49:25;;;;;;;3.72;2.03;;;;;;;;;;6177314;22;20052;-53
2022/07/01 10:52:00;;;;;;;8.55;2.00;;;;;;;;;;6176591;23;20029;-54
2022/07/01 10:54:38;;;;;;;3.05;1.77;;;;;;;;;;6176211;23;20021;-52
2022/07/01 10:57:18;;;;;;;4.18;2.38;;;;;;;;;;6176245;23;20084;-51
2022/07/01 10:59:57;;;;;;;3.03;1.88;;;;;;;;;;6174343;23;20029;-49
2022/07/01 11:02:29;;;;;;;4.32;2.13;;;;;;;;;;6174218;23;20021;-55
2022/07/01 11:05:04;;;;;;;2.85;1.92;;;;;;;;;;6174334;23;20302;-55
2022/07/01 11:07:33;;;;;;;4.05;2.20;;;;;;;;;;6176032;23;20080;-52
2022/07/01 11:10:01;;;;;;;3.78;2.13;;;;;;;;;;6175525;23;20029;-51
2022/07/01 11:12:35;;;;;;;3.83;2.00;;;;;;;;;;6175799;23;20029;-50
2022/07/01 11:15:07;;;;;;;3.58;2.10;;;;;;;;;;6177106;23;20024;-52
2022/07/01 11:17:34;;;;;;;6.57;2.10;;;;;;;;;;6173960;23;20027;-54
2022/07/01 11:20:08;;;;;;;3.20;1.67;;;;;;;;;;6175083;23;20099;-60
2022/07/01 11:22:36;;;;;;;7.13;1.88;;;;;;;;;;6175969;23;20475;-60
2022/07/01 11:25:07;;;;;;;4.55;1.88;;;;;;;;;;6175441;23;20454;-60
2022/07/01 11:27:45;;;;;;;4.28;1.95;;;;;;;;;;6174260;23;20021;-60
2022/07/01 11:30:12;;;;;;;2.97;2.00;;;;;;;;;;6175684;23;20029;-60
2022/07/01 11:32:44;;;;;;;4.50;2.08;;;;;;;;;;6174508;23;20224;-60
2022/07/01 11:41:07;;;;;;;4.05;2.15;;;;;;;;;;6177589;23;20020;-65
2022/07/01 11:43:36;;;;;;;3.42;2.13;;;;;;;;;;6177093;23;20026;-64
2022/07/01 11:46:04;;;;;;;4.40;2.13;;;;;;;;;;6152287;23;20021;-64
2022/07/01 11:48:41;;;;;;;3.63;2.20;;;;;;;;;;6176837;23;20032;-65
2022/07/01 11:51:20;;;;;;;2.55;1.92;;;;;;;;;;6178659;22;20044;-64
2022/07/01 11:53:56;;;;;;;5.25;1.85;;;;;;;;;;6178037;23;20067;-60
2022/07/01 11:56:30;;;;;;;3.38;2.28;;;;;;;;;;6178576;23;20021;-62
2022/07/01 11:59:04;;;;;;;5.00;2.17;;;;;;;;;;6176986;23;20516;-63
2022/07/01 12:01:36;;;;;;;5.07;2.30;;;;;;;;;;6175224;23;20029;-63
2022/07/01 12:04:04;;;;;;;4.70;2.05;;;;;;;;;;6175474;23;20112;-63
2022/07/01 12:06:39;;;;;;;6.38;2.20;;;;;;;;;;6177442;23;20025;-63
2022/07/01 12:09:07;;;;;;;3.83;2.10;;;;;;;;;;6178451;23;20021;-63
2022/07/01 12:11:34;;;;;;;5.38;2.80;;;;;;;;;;6178096;23;20090;-62
2022/07/01 12:14:09;;;;;;;4.82;2.42;;;;;;;;;;6150202;23;20059;-60
2022/07/01 12:16:40;;;;;;;3.17;2.03;;;;;;;;;;6177798;23;20477;-60
2022/07/01 12:19:09;;;;;;;5.80;2.28;;;;;;;;;;6176849;23;20021;-60
2022/07/01 12:21:53;;;;;;;3.38;2.10;;;;;;;;;;6175447;23;20072;-61
2022/07/01 12:24:24;;;;;;;6.05;2.58;;;;;;;;;;6175113;23;20095;-60
2022/07/01 12:26:58;;;;;;;4.57;2.40;;;;;;;;;;6176695;23;20411;-60
2022/07/01 12:29:30;;;;;;;5.25;2.40;;;;;;;;;;6176023;23;20067;-60
2022/07/01 12:32:05;;;;;;;4.32;2.30;;;;;;;;;;6177500;23;20032;-50
2022/07/01 12:34:46;;;;;;;3.72;2.30;;;;;;;;;;6175342;23;20414;-60
2022/07/01 12:37:15;;;;;;;6.07;2.42;;;;;;;;;;6176532;23;20686;-63
2022/07/01 12:39:51;;;;;;;5.35;2.60;;;;;;;;;;6175680;23;20478;-63
2022/07/01 12:42:22;;;;;;;4.10;2.40;;;;;;;;;;6175715;23;20402;-62
2022/07/01 12:44:50;;;;;;;4.95;2.60;;;;;;;;;;6176645;23;20053;-63
2022/07/01 12:47:34;;;;;;;6.13;2.60;;;;;;;;;;6175787;23;20059;-63
2022/07/01 12:50:10;;;;;;;4.15;2.13;;;;;;;;;;6178654;22;20025;-62
2022/07/01 12:53:04;;;;;;;5.15;2.30;;;;;;;;;;6177779;23;20017;-53
2022/07/01 12:55:41;;;;;;;3.65;2.40;;;;;;;;;;6176483;23;20087;-59
2022/07/01 12:58:23;;;;;;;9.13;2.60;;;;;;;;;;6175687;23;20398;-60
2022/07/01 13:00:52;;;;;;;4.15;2.15;;;;;;;;;;6176606;23;20504;-60
2022/07/01 13:03:26;;;;;;;6.68;2.42;;;;;;;;;;6176800;23;20076;-60
2022/07/01 13:05:55;;;;;;;5.13;2.78;;;;;;;;;;6177444;23;20174;-60
2022/07/01 13:08:22;;;;;;;5.85;2.50;;;;;;;;;;6176208;23;20029;-60
2022/07/01 13:10:56;;;;;;;4.93;2.38;;;;;;;;;;6176786;23;20029;-63
2022/07/01 13:13:23;;;;;;;6.10;2.92;;;;;;;;;;6175944;23;20056;-59
2022/07/01 13:15:51;;;;;;;8.00;2.45;;;;;;;;;;6177767;23;20033;-60
2022/07/01 13:18:25;;;;;;;4.07;2.10;;;;;;;;;;6175683;23;20017;-60
2022/07/01 13:20:53;;;;;;;4.05;2.47;;;;;;;;;;6177361;23;20024;-60
2022/07/01 13:23:20;;;;;;;6.40;2.78;;;;;;;;;;6176290;23;20048;-60
2022/07/01 13:25:54;;;;;;;3.40;2.28;;;;;;;;;;6174355;23;20470;-59
2022/07/01 13:28:21;;;;;;;5.30;2.60;;;;;;;;;;6176457;23;20029;-59
2022/07/01 13:30:48;;;;;;;4.70;2.75;;;;;;;;;;6177498;23;20028;-50
2022/07/01 13:33:23;;;;;;;8.80;2.70;;;;;;;;;;6175882;23;20422;-63
2022/07/01 13:35:50;;;;;;;4.65;2.45;;;;;;;;;;6175865;23;20021;-62
2022/07/01 13:38:17;;;;;;;2.90;2.38;;;;;;;;;;6176748;23;20025;-64
2022/07/01 13:40:51;;;;;;;3.90;2.30;;;;;;;;;;6173663;23;20075;-63
2022/07/01 13:43:19;;;;;;;5.63;2.65;;;;;;;;;;6174457;23;20028;-64
2022/07/01 13:45:46;;;;;;;5.47;2.42;;;;;;;;;;6177189;23;20176;-63
2022/07/01 13:48:20;;;;;;;2.88;2.40;;;;;;;;;;6176181;23;20025;-49
2022/07/01 13:50:54;;;;;;;3.92;2.70;;;;;;;;;;6177923;22;20031;-60
2022/07/01 13:53:28;;;;;;;3.22;2.28;;;;;;;;;;6175430;23;20348;-59
2022/07/01 13:55:55;;;;;;;3.30;2.35;;;;;;;;;;6177436;23;20032;-60
2022/07/01 13:58:22;;;;;;;4.35;2.60;;;;;;;;;;6176489;23;20025;-60
2022/07/01 14:00:56;;;;;;;9.45;2.80;;;;;;;;;;6176193;23;20087;-60
2022/07/01 14:03:23;;;;;;;4.00;2.50;;;;;;;;;;6176279;23;20028;-60
2022/07/01 14:05:51;;;;;;;4.55;2.55;;;;;;;;;;6176884;23;20021;-60
2022/07/01 14:08:26;;;;;;;5.72;2.47;;;;;;;;;;6176459;23;20021;-60
2022/07/01 14:10:54;;;;;;;4.60;2.30;;;;;;;;;;6176206;23;20021;-54
2022/07/01 14:13:23;;;;;;;6.72;2.60;;;;;;;;;;6176644;23;20033;-52
2022/07/01 14:15:57;;;;;;;4.63;2.42;;;;;;;;;;6152145;23;20243;-50
2022/07/01 14:18:24;;;;;;;4.22;2.00;;;;;;;;;;6175838;23;20031;-54
2022/07/01 14:20:51;;;;;;;3.10;2.42;;;;;;;;;;6175824;23;20075;-53
2022/07/01 14:23:26;;;;;;;5.28;2.22;;;;;;;;;;6175949;23;20099;-52
2022/07/01 14:25:58;;;;;;;4.30;2.47;;;;;;;;;;6176709;23;20032;-52
2022/07/01 14:28:25;;;;;;;3.85;2.38;;;;;;;;;;6175520;23;20029;-52
2022/07/01 14:30:59;;;;;;;3.00;2.20;;;;;;;;;;6175885;23;20025;-63
2022/07/01 14:33:26;;;;;;;3.17;2.13;;;;;;;;;;6175937;23;20029;-64
2022/07/01 14:35:53;;;;;;;4.47;2.60;;;;;;;;;;6176574;23;20021;-63
2022/07/01 14:38:27;;;;;;;5.82;2.30;;;;;;;;;;6176079;23;20029;-63
2022/07/01 14:40:54;;;;;;;3.90;2.47;;;;;;;;;;6176577;23;20025;-63
2022/07/01 14:43:22;;;;;;;4.22;2.30;;;;;;;;;;6174488;23;20029;-63
2022/07/01 14:45:56;;;;;;;4.78;2.58;;;;;;;;;;6175542;23;20025;-59
2022/07/01 14:48:23;;;;;;;7.65;2.55;;;;;;;;;;6173549;23;20036;-60
2022/07/01 14:50:50;;;;;;;3.90;2.28;;;;;;;;;;6177959;22;20025;-60
2022/07/01 14:53:31;;;;;;;5.07;2.45;;;;;;;;;;6175371;23;20025;-59
2022/07/01 14:55:58;;;;;;;3.55;2.25;;;;;;;;;;6175903;23;20021;-59
2022/07/01 14:58:42;;;;;;;6.90;2.15;;;;;;;;;;6172939;23;20024;-59
2022/07/01 15:01:10;;;;;;;5.82;2.20;;;;;;;;;;6174723;23;20092;-60
2022/07/01 15:03:44;;;;;;;6.32;2.70;;;;;;;;;;6172715;23;20521;-50
2022/07/01 15:06:12;;;;;;;3.40;2.20;;;;;;;;;;6175295;23;20033;-51
2022/07/01 15:08:40;;;;;;;4.53;2.13;;;;;;;;;;6149901;23;20367;-54
2022/07/01 15:11:14;;;;;;;6.90;1.95;;;;;;;;;;6174197;23;20025;-52
2022/07/01 15:13:41;;;;;;;5.93;2.65;;;;;;;;;;6176154;23;20480;-53
2022/07/01 15:16:09;;;;;;;4.97;2.20;;;;;;;;;;6177807;23;20025;-53
2022/07/01 15:18:43;;;;;;;4.05;2.10;;;;;;;;;;6152117;23;20430;-52
2022/07/01 15:21:10;;;;;;;3.55;2.55;;;;;;;;;;6177719;23;20021;-52
2022/07/01 15:23:38;;;;;;;3.70;2.35;;;;;;;;;;6177870;23;20080;-61
2022/07/01 15:26:12;;;;;;;5.20;2.30;;;;;;;;;;6176641;23;20060;-59
2022/07/01 15:28:39;;;;;;;3.58;2.50;;;;;;;;;;6177041;23;20079;-59
2022/07/01 15:31:08;;;;;;;3.90;2.40;;;;;;;;;;6177660;23;20021;-60
2022/07/01 15:34:02;;;;;;;7.70;3.17;;;;;;;;;;6176963;23;20028;-59